sensor_id;sensor_type;location;lat;lon;timestamp;P1;durP1;ratioP1;P2;durP2;ratioP2
12271;SDS011;6198;51.446;6.698;2024-03-02T00:02:14;5.03;;;2.83;;
12271;SDS011;6198;51.446;6.698;2024-03-02T00:04:40;37.93;;;17.23;;
12271;SDS011;6198;51.446;6.698;2024-03-02T00:07:06;12.53;;;6.37;;
12271;SDS011;6198;51.446;6.698;2024-03-02T00:09:32;6.83;;;3.37;;
12271;SDS011;6198;51.446;6.698;2024-03-02T00:11:59;15.90;;;7.87;;
12271;SDS011;6198;51.446;6.698;2024-03-02T00:14:25;4.97;;;2.17;;
12271;SDS011;6198;51.446;6.698;2024-03-02T00:16:55;6.10;;;3.93;;
12271;SDS011;6198;51.446;6.698;2024-03-02T00:19:21;2.50;;;2.10;;
12271;SDS011;6198;51.446;6.698;2024-03-02T00:21:48;3.57;;;2.77;;
12271;SDS011;6198;51.446;6.698;2024-03-02T00:24:26;4.10;;;3.17;;
12271;SDS011;6198;51.446;6.698;2024-03-02T00:26:57;3.30;;;2.73;;
12271;SDS011;6198;51.446;6.698;2024-03-02T00:29:23;4.60;;;3.47;;
12271;SDS011;6198;51.446;6.698;2024-03-02T00:31:50;7.00;;;4.73;;
12271;SDS011;6198;51.446;6.698;2024-03-02T00:34:16;3.87;;;2.23;;
12271;SDS011;6198;51.446;6.698;2024-03-02T00:36:43;11.97;;;5.47;;
12271;SDS011;6198;51.446;6.698;2024-03-02T00:39:10;5.40;;;3.47;;
12271;SDS011;6198;51.446;6.698;2024-03-02T00:41:38;4.27;;;2.63;;
12271;SDS011;6198;51.446;6.698;2024-03-02T00:44:07;5.77;;;2.87;;
12271;SDS011;6198;51.446;6.698;2024-03-02T00:46:36;9.83;;;3.80;;
12271;SDS011;6198;51.446;6.698;2024-03-02T00:49:11;6.27;;;3.93;;
12271;SDS011;6198;51.446;6.698;2024-03-02T00:51:37;6.43;;;4.00;;
12271;SDS011;6198;51.446;6.698;2024-03-02T00:54:05;9.03;;;3.23;;
12271;SDS011;6198;51.446;6.698;2024-03-02T00:56:32;6.80;;;3.50;;
12271;SDS011;6198;51.446;6.698;2024-03-02T00:58:59;8.67;;;3.40;;
12271;SDS011;6198;51.446;6.698;2024-03-02T01:01:25;8.77;;;4.40;;
12271;SDS011;6198;51.446;6.698;2024-03-02T01:03:52;7.80;;;3.80;;
12271;SDS011;6198;51.446;6.698;2024-03-02T01:06:18;7.07;;;3.63;;
12271;SDS011;6198;51.446;6.698;2024-03-02T01:08:44;10.13;;;5.27;;
12271;SDS011;6198;51.446;6.698;2024-03-02T01:11:11;9.00;;;4.33;;
12271;SDS011;6198;51.446;6.698;2024-03-02T01:13:37;23.93;;;9.97;;
12271;SDS011;6198;51.446;6.698;2024-03-02T01:16:03;5.93;;;3.83;;
12271;SDS011;6198;51.446;6.698;2024-03-02T01:18:29;4.93;;;3.10;;
12271;SDS011;6198;51.446;6.698;2024-03-02T01:20:55;9.20;;;5.40;;
12271;SDS011;6198;51.446;6.698;2024-03-02T01:23:22;5.23;;;3.07;;
12271;SDS011;6198;51.446;6.698;2024-03-02T01:25:48;6.03;;;3.43;;
12271;SDS011;6198;51.446;6.698;2024-03-02T01:28:15;15.17;;;6.67;;
12271;SDS011;6198;51.446;6.698;2024-03-02T01:30:41;3.70;;;2.50;;
12271;SDS011;6198;51.446;6.698;2024-03-02T01:33:07;25.50;;;11.93;;
12271;SDS011;6198;51.446;6.698;2024-03-02T01:35:33;9.57;;;5.30;;
12271;SDS011;6198;51.446;6.698;2024-03-02T01:38:02;9.53;;;3.93;;
12271;SDS011;6198;51.446;6.698;2024-03-02T01:40:28;10.13;;;4.20;;
12271;SDS011;6198;51.446;6.698;2024-03-02T01:42:54;16.33;;;7.17;;
12271;SDS011;6198;51.446;6.698;2024-03-02T01:45:23;9.70;;;4.00;;
12271;SDS011;6198;51.446;6.698;2024-03-02T01:47:48;25.00;;;9.77;;
12271;SDS011;6198;51.446;6.698;2024-03-02T01:50:15;48.07;;;16.10;;
12271;SDS011;6198;51.446;6.698;2024-03-02T01:52:41;13.00;;;6.00;;
12271;SDS011;6198;51.446;6.698;2024-03-02T01:55:09;23.63;;;9.47;;
12271;SDS011;6198;51.446;6.698;2024-03-02T01:57:35;20.03;;;8.57;;
12271;SDS011;6198;51.446;6.698;2024-03-02T02:00:01;20.37;;;10.77;;
12271;SDS011;6198;51.446;6.698;2024-03-02T02:02:28;15.23;;;11.20;;
12271;SDS011;6198;51.446;6.698;2024-03-02T02:04:54;18.50;;;11.13;;
12271;SDS011;6198;51.446;6.698;2024-03-02T02:07:20;21.63;;;12.17;;
12271;SDS011;6198;51.446;6.698;2024-03-02T02:09:46;24.00;;;13.50;;
12271;SDS011;6198;51.446;6.698;2024-03-02T02:12:12;23.53;;;12.20;;
12271;SDS011;6198;51.446;6.698;2024-03-02T02:14:38;17.33;;;9.23;;
12271;SDS011;6198;51.446;6.698;2024-03-02T02:17:08;13.60;;;7.10;;
12271;SDS011;6198;51.446;6.698;2024-03-02T02:19:34;8.97;;;4.70;;
12271;SDS011;6198;51.446;6.698;2024-03-02T02:22:00;10.03;;;4.07;;
12271;SDS011;6198;51.446;6.698;2024-03-02T02:24:25;6.37;;;3.03;;
12271;SDS011;6198;51.446;6.698;2024-03-02T02:26:51;3.13;;;2.20;;
12271;SDS011;6198;51.446;6.698;2024-03-02T02:29:17;2.47;;;1.93;;
12271;SDS011;6198;51.446;6.698;2024-03-02T02:31:43;3.70;;;1.90;;
12271;SDS011;6198;51.446;6.698;2024-03-02T02:34:09;3.30;;;2.10;;
12271;SDS011;6198;51.446;6.698;2024-03-02T02:36:37;3.67;;;1.90;;
12271;SDS011;6198;51.446;6.698;2024-03-02T02:39:03;4.63;;;2.00;;
12271;SDS011;6198;51.446;6.698;2024-03-02T02:41:31;3.17;;;2.07;;
12271;SDS011;6198;51.446;6.698;2024-03-02T02:43:57;3.80;;;2.80;;
12271;SDS011;6198;51.446;6.698;2024-03-02T02:46:23;5.63;;;2.43;;
12271;SDS011;6198;51.446;6.698;2024-03-02T02:48:49;4.17;;;2.40;;
12271;SDS011;6198;51.446;6.698;2024-03-02T02:51:18;2.60;;;2.00;;
12271;SDS011;6198;51.446;6.698;2024-03-02T02:53:43;6.27;;;2.83;;
12271;SDS011;6198;51.446;6.698;2024-03-02T02:56:09;3.77;;;2.43;;
12271;SDS011;6198;51.446;6.698;2024-03-02T02:58:35;4.57;;;3.17;;
12271;SDS011;6198;51.446;6.698;2024-03-02T03:01:01;3.13;;;2.47;;
12271;SDS011;6198;51.446;6.698;2024-03-02T03:03:28;6.20;;;3.03;;
12271;SDS011;6198;51.446;6.698;2024-03-02T03:05:55;8.63;;;2.93;;
12271;SDS011;6198;51.446;6.698;2024-03-02T03:08:21;4.27;;;2.47;;
12271;SDS011;6198;51.446;6.698;2024-03-02T03:10:48;4.73;;;2.10;;
12271;SDS011;6198;51.446;6.698;2024-03-02T03:13:14;2.60;;;2.10;;
12271;SDS011;6198;51.446;6.698;2024-03-02T03:15:40;2.50;;;1.70;;
12271;SDS011;6198;51.446;6.698;2024-03-02T03:18:06;1.53;;;1.43;;
12271;SDS011;6198;51.446;6.698;2024-03-02T03:20:32;2.57;;;1.80;;
12271;SDS011;6198;51.446;6.698;2024-03-02T03:22:59;2.20;;;1.60;;
12271;SDS011;6198;51.446;6.698;2024-03-02T03:25:25;2.13;;;1.90;;
12271;SDS011;6198;51.446;6.698;2024-03-02T03:27:51;3.00;;;2.00;;
12271;SDS011;6198;51.446;6.698;2024-03-02T03:30:17;1.97;;;1.70;;
12271;SDS011;6198;51.446;6.698;2024-03-02T03:32:43;2.83;;;2.23;;
12271;SDS011;6198;51.446;6.698;2024-03-02T03:35:09;2.80;;;2.27;;
12271;SDS011;6198;51.446;6.698;2024-03-02T03:37:37;3.17;;;2.47;;
12271;SDS011;6198;51.446;6.698;2024-03-02T03:40:03;2.83;;;2.30;;
12271;SDS011;6198;51.446;6.698;2024-03-02T03:42:34;2.93;;;2.50;;
12271;SDS011;6198;51.446;6.698;2024-03-02T03:45:00;3.10;;;2.80;;
12271;SDS011;6198;51.446;6.698;2024-03-02T03:47:26;6.90;;;2.70;;
12271;SDS011;6198;51.446;6.698;2024-03-02T03:49:52;4.57;;;2.90;;
12271;SDS011;6198;51.446;6.698;2024-03-02T03:52:18;3.77;;;3.07;;
12271;SDS011;6198;51.446;6.698;2024-03-02T03:54:44;4.00;;;2.53;;
12271;SDS011;6198;51.446;6.698;2024-03-02T03:57:10;3.67;;;2.67;;
12271;SDS011;6198;51.446;6.698;2024-03-02T03:59:36;5.07;;;2.27;;
12271;SDS011;6198;51.446;6.698;2024-03-02T04:02:03;4.93;;;2.60;;
12271;SDS011;6198;51.446;6.698;2024-03-02T04:04:29;3.33;;;2.10;;
12271;SDS011;6198;51.446;6.698;2024-03-02T04:06:55;7.07;;;2.10;;
12271;SDS011;6198;51.446;6.698;2024-03-02T04:09:21;2.27;;;2.07;;
12271;SDS011;6198;51.446;6.698;2024-03-02T04:11:47;4.37;;;2.17;;
12271;SDS011;6198;51.446;6.698;2024-03-02T04:14:13;2.83;;;1.77;;
12271;SDS011;6198;51.446;6.698;2024-03-02T04:16:39;3.60;;;2.10;;
12271;SDS011;6198;51.446;6.698;2024-03-02T04:19:05;4.03;;;1.70;;
12271;SDS011;6198;51.446;6.698;2024-03-02T04:21:31;4.03;;;2.00;;
12271;SDS011;6198;51.446;6.698;2024-03-02T04:23:57;3.43;;;1.60;;
12271;SDS011;6198;51.446;6.698;2024-03-02T04:26:24;3.27;;;2.50;;
12271;SDS011;6198;51.446;6.698;2024-03-02T04:28:50;2.60;;;1.90;;
12271;SDS011;6198;51.446;6.698;2024-03-02T04:31:16;6.17;;;2.20;;
12271;SDS011;6198;51.446;6.698;2024-03-02T04:33:42;2.57;;;2.13;;
12271;SDS011;6198;51.446;6.698;2024-03-02T04:36:08;5.43;;;1.80;;
12271;SDS011;6198;51.446;6.698;2024-03-02T04:38:35;4.97;;;1.70;;
12271;SDS011;6198;51.446;6.698;2024-03-02T04:41:00;2.10;;;1.60;;
12271;SDS011;6198;51.446;6.698;2024-03-02T04:43:26;3.83;;;1.80;;
12271;SDS011;6198;51.446;6.698;2024-03-02T04:45:52;2.27;;;1.77;;
12271;SDS011;6198;51.446;6.698;2024-03-02T04:48:18;5.30;;;2.07;;
12271;SDS011;6198;51.446;6.698;2024-03-02T04:50:44;6.63;;;1.83;;
12271;SDS011;6198;51.446;6.698;2024-03-02T04:53:10;2.90;;;1.60;;
12271;SDS011;6198;51.446;6.698;2024-03-02T04:55:36;3.10;;;1.80;;
12271;SDS011;6198;51.446;6.698;2024-03-02T04:58:05;4.27;;;1.73;;
12271;SDS011;6198;51.446;6.698;2024-03-02T05:00:31;2.20;;;2.00;;
12271;SDS011;6198;51.446;6.698;2024-03-02T05:02:57;2.33;;;2.00;;
12271;SDS011;6198;51.446;6.698;2024-03-02T05:05:23;2.70;;;1.90;;
12271;SDS011;6198;51.446;6.698;2024-03-02T05:07:49;3.03;;;1.80;;
12271;SDS011;6198;51.446;6.698;2024-03-02T05:10:15;4.10;;;2.03;;
12271;SDS011;6198;51.446;6.698;2024-03-02T05:12:41;4.27;;;2.30;;
12271;SDS011;6198;51.446;6.698;2024-03-02T05:15:07;3.00;;;2.30;;
12271;SDS011;6198;51.446;6.698;2024-03-02T05:17:35;2.93;;;2.47;;
12271;SDS011;6198;51.446;6.698;2024-03-02T05:20:01;5.33;;;2.40;;
12271;SDS011;6198;51.446;6.698;2024-03-02T05:22:27;3.57;;;2.30;;
12271;SDS011;6198;51.446;6.698;2024-03-02T05:24:53;3.53;;;2.20;;
12271;SDS011;6198;51.446;6.698;2024-03-02T05:27:19;6.53;;;2.63;;
12271;SDS011;6198;51.446;6.698;2024-03-02T05:29:45;4.33;;;2.60;;
12271;SDS011;6198;51.446;6.698;2024-03-02T05:32:12;4.07;;;2.20;;
12271;SDS011;6198;51.446;6.698;2024-03-02T05:34:38;3.87;;;2.13;;
12271;SDS011;6198;51.446;6.698;2024-03-02T05:37:03;3.10;;;2.30;;
12271;SDS011;6198;51.446;6.698;2024-03-02T05:39:29;5.60;;;3.27;;
12271;SDS011;6198;51.446;6.698;2024-03-02T05:41:55;5.93;;;4.20;;
12271;SDS011;6198;51.446;6.698;2024-03-02T05:44:21;16.10;;;8.80;;
12271;SDS011;6198;51.446;6.698;2024-03-02T05:46:47;14.30;;;9.30;;
12271;SDS011;6198;51.446;6.698;2024-03-02T05:49:13;14.07;;;9.13;;
12271;SDS011;6198;51.446;6.698;2024-03-02T05:51:39;19.20;;;10.23;;
12271;SDS011;6198;51.446;6.698;2024-03-02T05:54:06;13.53;;;7.50;;
12271;SDS011;6198;51.446;6.698;2024-03-02T05:56:32;7.00;;;4.60;;
12271;SDS011;6198;51.446;6.698;2024-03-02T05:58:58;14.87;;;5.60;;
12271;SDS011;6198;51.446;6.698;2024-03-02T06:01:47;11.77;;;6.23;;
12271;SDS011;6198;51.446;6.698;2024-03-02T06:04:16;7.23;;;2.80;;
12271;SDS011;6198;51.446;6.698;2024-03-02T06:06:42;7.60;;;4.50;;
12271;SDS011;6198;51.446;6.698;2024-03-02T06:09:09;7.17;;;4.60;;
12271;SDS011;6198;51.446;6.698;2024-03-02T06:11:38;5.10;;;4.10;;
12271;SDS011;6198;51.446;6.698;2024-03-02T06:14:04;6.27;;;4.10;;
12271;SDS011;6198;51.446;6.698;2024-03-02T06:16:31;7.00;;;4.23;;
12271;SDS011;6198;51.446;6.698;2024-03-02T06:18:57;6.23;;;5.03;;
12271;SDS011;6198;51.446;6.698;2024-03-02T06:21:23;6.73;;;5.07;;
12271;SDS011;6198;51.446;6.698;2024-03-02T06:23:49;4.63;;;3.17;;
12271;SDS011;6198;51.446;6.698;2024-03-02T06:26:15;3.23;;;2.87;;
12271;SDS011;6198;51.446;6.698;2024-03-02T06:28:41;4.47;;;2.80;;
12271;SDS011;6198;51.446;6.698;2024-03-02T06:31:07;3.47;;;2.63;;
12271;SDS011;6198;51.446;6.698;2024-03-02T06:33:34;2.80;;;2.20;;
12271;SDS011;6198;51.446;6.698;2024-03-02T06:36:00;5.20;;;2.33;;
12271;SDS011;6198;51.446;6.698;2024-03-02T06:38:26;3.43;;;2.10;;
12271;SDS011;6198;51.446;6.698;2024-03-02T06:40:52;6.17;;;2.33;;
12271;SDS011;6198;51.446;6.698;2024-03-02T06:43:18;2.90;;;2.40;;
12271;SDS011;6198;51.446;6.698;2024-03-02T06:45:48;3.47;;;2.50;;
12271;SDS011;6198;51.446;6.698;2024-03-02T06:48:14;4.53;;;2.70;;
12271;SDS011;6198;51.446;6.698;2024-03-02T06:50:44;4.57;;;2.90;;
12271;SDS011;6198;51.446;6.698;2024-03-02T06:53:10;5.17;;;2.60;;
12271;SDS011;6198;51.446;6.698;2024-03-02T06:55:36;4.03;;;2.43;;
12271;SDS011;6198;51.446;6.698;2024-03-02T06:58:02;4.73;;;2.50;;
12271;SDS011;6198;51.446;6.698;2024-03-02T07:00:28;5.47;;;2.30;;
12271;SDS011;6198;51.446;6.698;2024-03-02T07:02:54;4.80;;;2.13;;
12271;SDS011;6198;51.446;6.698;2024-03-02T07:05:20;4.77;;;2.50;;
12271;SDS011;6198;51.446;6.698;2024-03-02T07:07:46;4.33;;;2.70;;
12271;SDS011;6198;51.446;6.698;2024-03-02T07:10:12;4.33;;;2.60;;
12271;SDS011;6198;51.446;6.698;2024-03-02T07:12:38;3.93;;;2.87;;
12271;SDS011;6198;51.446;6.698;2024-03-02T07:15:04;3.17;;;2.50;;
12271;SDS011;6198;51.446;6.698;2024-03-02T07:17:30;4.10;;;2.50;;
12271;SDS011;6198;51.446;6.698;2024-03-02T07:19:57;3.70;;;2.50;;
12271;SDS011;6198;51.446;6.698;2024-03-02T07:22:23;4.40;;;2.60;;
12271;SDS011;6198;51.446;6.698;2024-03-02T07:24:49;5.57;;;2.57;;
12271;SDS011;6198;51.446;6.698;2024-03-02T07:27:16;8.67;;;2.70;;
12271;SDS011;6198;51.446;6.698;2024-03-02T07:29:42;3.17;;;2.27;;
12271;SDS011;6198;51.446;6.698;2024-03-02T07:32:08;3.57;;;2.33;;
12271;SDS011;6198;51.446;6.698;2024-03-02T07:34:35;3.30;;;2.40;;
12271;SDS011;6198;51.446;6.698;2024-03-02T07:37:01;2.93;;;2.20;;
12271;SDS011;6198;51.446;6.698;2024-03-02T07:39:27;3.97;;;2.47;;
12271;SDS011;6198;51.446;6.698;2024-03-02T07:41:54;6.20;;;2.60;;
12271;SDS011;6198;51.446;6.698;2024-03-02T07:44:20;3.90;;;2.33;;
12271;SDS011;6198;51.446;6.698;2024-03-02T07:46:46;6.03;;;3.00;;
12271;SDS011;6198;51.446;6.698;2024-03-02T07:49:14;3.43;;;2.57;;
12271;SDS011;6198;51.446;6.698;2024-03-02T07:51:40;6.03;;;2.90;;
12271;SDS011;6198;51.446;6.698;2024-03-02T07:54:06;4.27;;;2.53;;
12271;SDS011;6198;51.446;6.698;2024-03-02T07:56:32;3.43;;;2.73;;
12271;SDS011;6198;51.446;6.698;2024-03-02T07:58:58;4.67;;;2.80;;
12271;SDS011;6198;51.446;6.698;2024-03-02T08:01:32;6.23;;;3.10;;
12271;SDS011;6198;51.446;6.698;2024-03-02T08:03:58;5.63;;;3.63;;
12271;SDS011;6198;51.446;6.698;2024-03-02T08:06:25;7.90;;;3.20;;
12271;SDS011;6198;51.446;6.698;2024-03-02T08:08:55;6.07;;;3.00;;
12271;SDS011;6198;51.446;6.698;2024-03-02T08:11:21;5.43;;;3.30;;
12271;SDS011;6198;51.446;6.698;2024-03-02T08:13:47;4.83;;;2.93;;
12271;SDS011;6198;51.446;6.698;2024-03-02T08:16:16;5.03;;;3.17;;
12271;SDS011;6198;51.446;6.698;2024-03-02T08:18:45;4.40;;;2.97;;
12271;SDS011;6198;51.446;6.698;2024-03-02T08:21:12;4.73;;;3.03;;
12271;SDS011;6198;51.446;6.698;2024-03-02T08:23:38;4.70;;;2.93;;
12271;SDS011;6198;51.446;6.698;2024-03-02T08:26:05;6.43;;;3.13;;
12271;SDS011;6198;51.446;6.698;2024-03-02T08:28:31;5.70;;;2.60;;
12271;SDS011;6198;51.446;6.698;2024-03-02T08:30:58;4.70;;;2.97;;
12271;SDS011;6198;51.446;6.698;2024-03-02T08:33:24;4.00;;;2.73;;
12271;SDS011;6198;51.446;6.698;2024-03-02T08:35:50;4.47;;;2.80;;
12271;SDS011;6198;51.446;6.698;2024-03-02T08:38:16;7.07;;;2.80;;
12271;SDS011;6198;51.446;6.698;2024-03-02T08:40:42;3.97;;;2.87;;
12271;SDS011;6198;51.446;6.698;2024-03-02T08:43:08;6.13;;;2.90;;
12271;SDS011;6198;51.446;6.698;2024-03-02T08:45:34;3.40;;;2.40;;
12271;SDS011;6198;51.446;6.698;2024-03-02T08:48:00;5.53;;;2.60;;
12271;SDS011;6198;51.446;6.698;2024-03-02T08:50:26;4.93;;;2.50;;
12271;SDS011;6198;51.446;6.698;2024-03-02T08:52:52;3.03;;;2.30;;
12271;SDS011;6198;51.446;6.698;2024-03-02T08:55:18;4.17;;;2.83;;
12271;SDS011;6198;51.446;6.698;2024-03-02T08:57:44;5.27;;;2.40;;
12271;SDS011;6198;51.446;6.698;2024-03-02T09:00:10;3.70;;;2.53;;
12271;SDS011;6198;51.446;6.698;2024-03-02T09:02:36;3.17;;;2.60;;
12271;SDS011;6198;51.446;6.698;2024-03-02T09:05:04;3.53;;;2.43;;
12271;SDS011;6198;51.446;6.698;2024-03-02T09:07:30;5.07;;;2.63;;
12271;SDS011;6198;51.446;6.698;2024-03-02T09:09:56;3.97;;;2.33;;
12271;SDS011;6198;51.446;6.698;2024-03-02T09:12:22;3.70;;;2.30;;
12271;SDS011;6198;51.446;6.698;2024-03-02T09:14:48;2.07;;;1.70;;
12271;SDS011;6198;51.446;6.698;2024-03-02T09:17:14;5.93;;;2.70;;
12271;SDS011;6198;51.446;6.698;2024-03-02T09:19:40;6.30;;;2.53;;
12271;SDS011;6198;51.446;6.698;2024-03-02T09:22:06;4.43;;;2.63;;
12271;SDS011;6198;51.446;6.698;2024-03-02T09:24:32;3.03;;;2.33;;
12271;SDS011;6198;51.446;6.698;2024-03-02T09:26:58;2.77;;;2.30;;
12271;SDS011;6198;51.446;6.698;2024-03-02T09:29:24;3.73;;;2.00;;
12271;SDS011;6198;51.446;6.698;2024-03-02T09:31:50;5.03;;;2.10;;
12271;SDS011;6198;51.446;6.698;2024-03-02T09:34:17;5.23;;;2.40;;
12271;SDS011;6198;51.446;6.698;2024-03-02T09:36:43;7.27;;;3.20;;
12271;SDS011;6198;51.446;6.698;2024-03-02T09:39:09;4.73;;;2.70;;
12271;SDS011;6198;51.446;6.698;2024-03-02T09:41:38;3.27;;;2.00;;
12271;SDS011;6198;51.446;6.698;2024-03-02T09:44:05;4.57;;;2.60;;
12271;SDS011;6198;51.446;6.698;2024-03-02T09:46:31;2.67;;;1.67;;
12271;SDS011;6198;51.446;6.698;2024-03-02T09:48:57;5.10;;;1.70;;
12271;SDS011;6198;51.446;6.698;2024-03-02T09:51:24;2.10;;;1.60;;
12271;SDS011;6198;51.446;6.698;2024-03-02T09:53:50;5.30;;;1.93;;
12271;SDS011;6198;51.446;6.698;2024-03-02T09:56:16;2.00;;;1.70;;
12271;SDS011;6198;51.446;6.698;2024-03-02T09:58:43;2.90;;;1.83;;
12271;SDS011;6198;51.446;6.698;2024-03-02T10:01:09;4.20;;;1.90;;
12271;SDS011;6198;51.446;6.698;2024-03-02T10:03:36;3.47;;;1.80;;
12271;SDS011;6198;51.446;6.698;2024-03-02T10:06:25;3.40;;;1.90;;
12271;SDS011;6198;51.446;6.698;2024-03-02T10:08:51;4.30;;;1.97;;
12271;SDS011;6198;51.446;6.698;2024-03-02T10:11:30;4.10;;;2.00;;
12271;SDS011;6198;51.446;6.698;2024-03-02T10:14:04;6.00;;;2.00;;
12271;SDS011;6198;51.446;6.698;2024-03-02T10:16:32;3.43;;;1.70;;
12271;SDS011;6198;51.446;6.698;2024-03-02T10:19:00;3.00;;;2.03;;
12271;SDS011;6198;51.446;6.698;2024-03-02T10:21:40;3.37;;;1.83;;
12271;SDS011;6198;51.446;6.698;2024-03-02T10:24:07;2.33;;;1.37;;
12271;SDS011;6198;51.446;6.698;2024-03-02T10:26:33;4.23;;;1.50;;
12271;SDS011;6198;51.446;6.698;2024-03-02T10:28:59;1.60;;;1.30;;
12271;SDS011;6198;51.446;6.698;2024-03-02T10:31:25;1.70;;;1.40;;
12271;SDS011;6198;51.446;6.698;2024-03-02T10:33:54;4.00;;;1.50;;
12271;SDS011;6198;51.446;6.698;2024-03-02T10:36:20;2.60;;;1.90;;
12271;SDS011;6198;51.446;6.698;2024-03-02T10:38:46;4.13;;;1.73;;
12271;SDS011;6198;51.446;6.698;2024-03-02T10:41:16;2.47;;;1.70;;
12271;SDS011;6198;51.446;6.698;2024-03-02T10:43:43;3.83;;;2.00;;
12271;SDS011;6198;51.446;6.698;2024-03-02T10:46:09;3.73;;;2.00;;
12271;SDS011;6198;51.446;6.698;2024-03-02T10:48:35;3.10;;;1.90;;
12271;SDS011;6198;51.446;6.698;2024-03-02T10:51:02;3.23;;;1.53;;
12271;SDS011;6198;51.446;6.698;2024-03-02T10:53:28;2.90;;;1.20;;
12271;SDS011;6198;51.446;6.698;2024-03-02T10:55:57;2.67;;;1.60;;
12271;SDS011;6198;51.446;6.698;2024-03-02T10:58:28;4.60;;;1.70;;
12271;SDS011;6198;51.446;6.698;2024-03-02T11:00:57;2.23;;;1.70;;
12271;SDS011;6198;51.446;6.698;2024-03-02T11:03:26;5.10;;;1.60;;
12271;SDS011;6198;51.446;6.698;2024-03-02T11:05:52;5.70;;;2.47;;
12271;SDS011;6198;51.446;6.698;2024-03-02T11:08:19;5.70;;;1.63;;
12271;SDS011;6198;51.446;6.698;2024-03-02T11:10:54;5.80;;;1.70;;
12271;SDS011;6198;51.446;6.698;2024-03-02T11:13:32;2.73;;;1.73;;
12271;SDS011;6198;51.446;6.698;2024-03-02T11:16:43;3.93;;;1.77;;
12271;SDS011;6198;51.446;6.698;2024-03-02T11:18:45;4.93;;;1.80;;
12271;SDS011;6198;51.446;6.698;2024-03-02T11:21:11;3.07;;;1.57;;
12271;SDS011;6198;51.446;6.698;2024-03-02T11:23:40;2.47;;;1.90;;
12271;SDS011;6198;51.446;6.698;2024-03-02T11:26:21;3.10;;;1.20;;
12271;SDS011;6198;51.446;6.698;2024-03-02T11:28:52;2.07;;;1.40;;
12271;SDS011;6198;51.446;6.698;2024-03-02T11:31:17;5.43;;;2.27;;
12271;SDS011;6198;51.446;6.698;2024-03-02T11:33:44;7.60;;;2.53;;
12271;SDS011;6198;51.446;6.698;2024-03-02T11:36:10;2.67;;;1.70;;
12271;SDS011;6198;51.446;6.698;2024-03-02T11:38:36;2.50;;;1.87;;
12271;SDS011;6198;51.446;6.698;2024-03-02T11:41:03;2.43;;;1.73;;
12271;SDS011;6198;51.446;6.698;2024-03-02T11:43:32;3.57;;;2.33;;
12271;SDS011;6198;51.446;6.698;2024-03-02T11:46:02;5.90;;;1.73;;
12271;SDS011;6198;51.446;6.698;2024-03-02T11:48:29;2.77;;;1.83;;
12271;SDS011;6198;51.446;6.698;2024-03-02T11:50:57;1.50;;;1.40;;
12271;SDS011;6198;51.446;6.698;2024-03-02T11:53:24;2.17;;;1.57;;
12271;SDS011;6198;51.446;6.698;2024-03-02T11:55:52;5.60;;;2.60;;
12271;SDS011;6198;51.446;6.698;2024-03-02T11:58:20;2.47;;;1.63;;
12271;SDS011;6198;51.446;6.698;2024-03-02T12:00:52;3.67;;;2.93;;
12271;SDS011;6198;51.446;6.698;2024-03-02T12:03:18;3.40;;;2.57;;
12271;SDS011;6198;51.446;6.698;2024-03-02T12:05:49;72.63;;;8.57;;
12271;SDS011;6198;51.446;6.698;2024-03-02T12:08:15;3.80;;;2.50;;
12271;SDS011;6198;51.446;6.698;2024-03-02T12:10:42;4.47;;;3.10;;
12271;SDS011;6198;51.446;6.698;2024-03-02T12:13:09;6.57;;;3.57;;
12271;SDS011;6198;51.446;6.698;2024-03-02T12:15:38;5.07;;;2.30;;
12271;SDS011;6198;51.446;6.698;2024-03-02T12:18:07;4.93;;;2.80;;
12271;SDS011;6198;51.446;6.698;2024-03-02T12:20:33;4.60;;;3.20;;
12271;SDS011;6198;51.446;6.698;2024-03-02T12:23:00;8.27;;;4.40;;
12271;SDS011;6198;51.446;6.698;2024-03-02T12:25:27;7.40;;;4.97;;
12271;SDS011;6198;51.446;6.698;2024-03-02T12:27:54;25.30;;;16.90;;
12271;SDS011;6198;51.446;6.698;2024-03-02T12:30:20;3.50;;;2.40;;
12271;SDS011;6198;51.446;6.698;2024-03-02T12:32:46;6.30;;;4.40;;
12271;SDS011;6198;51.446;6.698;2024-03-02T12:35:13;12.30;;;4.57;;
12271;SDS011;6198;51.446;6.698;2024-03-02T12:37:42;16.20;;;8.87;;
12271;SDS011;6198;51.446;6.698;2024-03-02T12:40:09;3.57;;;2.60;;
12271;SDS011;6198;51.446;6.698;2024-03-02T12:42:36;3.57;;;2.53;;
12271;SDS011;6198;51.446;6.698;2024-03-02T12:45:02;3.57;;;2.60;;
12271;SDS011;6198;51.446;6.698;2024-03-02T12:47:29;5.83;;;3.83;;
12271;SDS011;6198;51.446;6.698;2024-03-02T12:49:55;6.37;;;3.33;;
12271;SDS011;6198;51.446;6.698;2024-03-02T12:52:21;8.00;;;5.23;;
12271;SDS011;6198;51.446;6.698;2024-03-02T12:54:47;7.80;;;4.20;;
12271;SDS011;6198;51.446;6.698;2024-03-02T12:57:17;3.87;;;3.13;;
12271;SDS011;6198;51.446;6.698;2024-03-02T12:59:45;2.57;;;2.00;;
12271;SDS011;6198;51.446;6.698;2024-03-02T13:02:17;6.30;;;2.40;;
12271;SDS011;6198;51.446;6.698;2024-03-02T13:04:43;2.60;;;1.93;;
12271;SDS011;6198;51.446;6.698;2024-03-02T13:07:10;3.83;;;2.90;;
12271;SDS011;6198;51.446;6.698;2024-03-02T13:09:38;3.93;;;2.57;;
12271;SDS011;6198;51.446;6.698;2024-03-02T13:12:05;2.90;;;2.10;;
12271;SDS011;6198;51.446;6.698;2024-03-02T13:14:35;2.30;;;1.70;;
12271;SDS011;6198;51.446;6.698;2024-03-02T13:17:01;2.50;;;2.07;;
12271;SDS011;6198;51.446;6.698;2024-03-02T13:19:30;2.03;;;1.60;;
12271;SDS011;6198;51.446;6.698;2024-03-02T13:21:57;2.00;;;1.70;;
12271;SDS011;6198;51.446;6.698;2024-03-02T13:24:23;2.40;;;1.57;;
12271;SDS011;6198;51.446;6.698;2024-03-02T13:26:54;2.23;;;1.70;;
12271;SDS011;6198;51.446;6.698;2024-03-02T13:29:22;4.83;;;2.20;;
12271;SDS011;6198;51.446;6.698;2024-03-02T13:31:48;2.43;;;1.70;;
12271;SDS011;6198;51.446;6.698;2024-03-02T13:34:14;5.40;;;1.53;;
12271;SDS011;6198;51.446;6.698;2024-03-02T13:36:40;4.90;;;2.20;;
12271;SDS011;6198;51.446;6.698;2024-03-02T13:39:06;1.80;;;1.53;;
12271;SDS011;6198;51.446;6.698;2024-03-02T13:41:35;4.80;;;1.50;;
12271;SDS011;6198;51.446;6.698;2024-03-02T13:44:01;2.43;;;1.83;;
12271;SDS011;6198;51.446;6.698;2024-03-02T13:46:27;1.73;;;1.50;;
12271;SDS011;6198;51.446;6.698;2024-03-02T13:48:53;3.13;;;1.77;;
12271;SDS011;6198;51.446;6.698;2024-03-02T13:51:19;2.03;;;1.43;;
12271;SDS011;6198;51.446;6.698;2024-03-02T13:53:46;4.70;;;1.70;;
12271;SDS011;6198;51.446;6.698;2024-03-02T13:56:12;2.10;;;1.40;;
12271;SDS011;6198;51.446;6.698;2024-03-02T13:58:38;2.63;;;2.00;;
12271;SDS011;6198;51.446;6.698;2024-03-02T14:01:04;1.50;;;1.17;;
12271;SDS011;6198;51.446;6.698;2024-03-02T14:03:30;2.10;;;1.80;;
12271;SDS011;6198;51.446;6.698;2024-03-02T14:05:56;3.67;;;1.70;;
12271;SDS011;6198;51.446;6.698;2024-03-02T14:08:23;5.20;;;1.60;;
12271;SDS011;6198;51.446;6.698;2024-03-02T14:10:49;2.17;;;1.40;;
12271;SDS011;6198;51.446;6.698;2024-03-02T14:13:15;3.17;;;1.20;;
12271;SDS011;6198;51.446;6.698;2024-03-02T14:15:41;1.83;;;1.53;;
12271;SDS011;6198;51.446;6.698;2024-03-02T14:18:07;1.43;;;1.27;;
12271;SDS011;6198;51.446;6.698;2024-03-02T14:20:36;1.33;;;1.23;;
12271;SDS011;6198;51.446;6.698;2024-03-02T14:23:02;4.47;;;1.90;;
12271;SDS011;6198;51.446;6.698;2024-03-02T14:25:29;1.77;;;1.33;;
12271;SDS011;6198;51.446;6.698;2024-03-02T14:27:58;2.77;;;1.50;;
12271;SDS011;6198;51.446;6.698;2024-03-02T14:30:24;2.57;;;1.90;;
12271;SDS011;6198;51.446;6.698;2024-03-02T14:32:50;2.30;;;2.10;;
12271;SDS011;6198;51.446;6.698;2024-03-02T14:35:16;1.97;;;1.77;;
12271;SDS011;6198;51.446;6.698;2024-03-02T14:37:42;2.27;;;2.00;;
12271;SDS011;6198;51.446;6.698;2024-03-02T14:40:11;2.80;;;1.87;;
12271;SDS011;6198;51.446;6.698;2024-03-02T14:42:38;2.10;;;1.90;;
12271;SDS011;6198;51.446;6.698;2024-03-02T14:45:04;2.07;;;1.87;;
12271;SDS011;6198;51.446;6.698;2024-03-02T14:47:31;7.37;;;2.40;;
12271;SDS011;6198;51.446;6.698;2024-03-02T14:49:58;2.10;;;1.90;;
12271;SDS011;6198;51.446;6.698;2024-03-02T14:52:24;2.10;;;1.90;;
12271;SDS011;6198;51.446;6.698;2024-03-02T14:54:50;2.77;;;1.30;;
12271;SDS011;6198;51.446;6.698;2024-03-02T14:57:16;1.50;;;1.40;;
12271;SDS011;6198;51.446;6.698;2024-03-02T14:59:42;2.73;;;1.73;;